Time;durP1;ratioP1;P1;durP2;ratioP2;P2;SDS_P1;SDS_P2;PMS_P1;PMS_P2;Temp;Humidity;BMP_temperature;BMP_pressure;BME280_temperature;BME280_humidity;BME280_pressure;Samples;Min_cycle;Max_cycle;Signal;HPM_P1;HPM_P2
2024/02/13 00:01:43;;;;;;;;;;;;;;;;;;5030350;28;20004;-90
2024/02/13 00:04:10;;;;;;;;;;;;;;;;;;5029926;28;20364;-90
2024/02/13 00:06:36;;;;;;;;;;;;;;;;;;5032434;28;19921;-90
2024/02/13 00:09:02;;;;;;;;;;;;;;;;;;5032269;28;19924;-89
2024/02/13 00:11:28;;;;;;;;;;;;;;;;;;5044883;28;19913;-90
2024/02/13 00:13:53;;;;;;;;;;;;;;;;;;5033653;28;19913;-89
2024/02/13 00:16:22;;;;;;;;;;;;;;;;;;5034706;28;20376;-90
2024/02/13 00:18:48;;;;;;;;;;;;;;;;;;5034466;28;19913;-90
2024/02/13 00:21:14;;;;;;;;;;;;;;;;;;5031416;28;19923;-90
2024/02/13 00:23:39;;;;;;;;;;;;;;;;;;5037683;28;19917;-90
2024/02/13 00:26:09;;;;;;;;;;;;;;;;;;5026698;28;20339;-89
2024/02/13 00:28:35;;;;;;;;;;;;;;;;;;5030717;28;19979;-89
2024/02/13 00:31:04;;;;;;;;;;;;;;;;;;5021777;28;19913;-89
2024/02/13 00:33:30;;;;;;;;;;;;;;;;;;5035300;28;19917;-90
2024/02/13 00:35:56;;;;;;;;;;;;;;;;;;5031299;28;19909;-88
2024/02/13 00:38:22;;;;;;;;;;;;;;;;;;5026976;28;19921;-90
2024/02/13 00:40:48;;;;;;;;;;;;;;;;;;5031448;28;19913;-90
2024/02/13 00:43:19;;;;;;;;;;;;;;;;;;5035910;28;20291;-89
2024/02/13 00:45:45;;;;;;;;;;;;;;;;;;5035447;28;20417;-89
2024/02/13 00:48:11;;;;;;;;;;;;;;;;;;5032439;28;19913;-90
2024/02/13 00:50:38;;;;;;;;;;;;;;;;;;5033818;28;20382;-90
2024/02/13 00:53:04;;;;;;;;;;;;;;;;;;5031725;28;19913;-91
2024/02/13 00:55:31;;;;;;;;;;;;;;;;;;5036493;28;19913;-90
2024/02/13 00:57:57;;;;;;;;;;;;;;;;;;5032283;28;20540;-90
2024/02/13 01:00:24;;;;;;;;;;;;;;;;;;5031485;28;20007;-89
2024/02/13 01:02:50;;;;;;;;;;;;;;;;;;5031722;28;19918;-91
2024/02/13 01:05:16;;;;;;;;;;;;;;;;;;5031826;28;19936;-90
2024/02/13 01:07:42;;;;;;;;;;;;;;;;;;5033262;28;19923;-89
2024/02/13 01:10:08;;;;;;;;;;;;;;;;;;5031478;28;20368;-90
2024/02/13 01:12:34;;;;;;;;;;;;;;;;;;5047575;28;19915;-88
2024/02/13 01:15:00;;;;;;;;;;;;;;;;;;5036797;28;20287;-89
2024/02/13 01:17:28;;;;;;;;;;;;;;;;;;5031636;28;19920;-90
2024/02/13 01:19:54;;;;;;;;;;;;;;;;;;5029897;28;20029;-89
2024/02/13 01:22:19;;;;;;;;;;;;;;;;;;5029484;28;20051;-90
2024/02/13 01:24:45;;;;;;;;;;;;;;;;;;5035593;28;19914;-90
2024/02/13 01:27:13;;;;;;;;;;;;;;;;;;5031346;28;19920;-90
2024/02/13 01:29:39;;;;;;;;;;;;;;;;;;5031083;28;19914;-89
2024/02/13 01:32:05;;;;;;;;;;;;;;;;;;5037470;28;19913;-90
2024/02/13 01:34:31;;;;;;;;;;;;;;;;;;5031623;28;19963;-89
2024/02/13 01:36:57;;;;;;;;;;;;;;;;;;5036497;28;20095;-90
2024/02/13 01:39:24;;;;;;;;;;;;;;;;;;5038860;28;20393;-90
2024/02/13 01:41:49;;;;;;;;;;;;;;;;;;5039732;28;19913;-91
2024/02/13 01:44:15;;;;;;;;;;;;;;;;;;5037630;28;20338;-90
2024/02/13 01:46:41;;;;;;;;;;;;;;;;;;5041241;28;19913;-90
2024/02/13 01:49:09;;;;;;;;;;;;;;;;;;5035875;28;19917;-90
2024/02/13 01:51:35;;;;;;;;;;;;;;;;;;5032021;28;19964;-91
2024/02/13 01:54:01;;;;;;;;;;;;;;;;;;5032300;28;19917;-90
2024/02/13 01:56:27;;;;;;;;;;;;;;;;;;5038316;28;20269;-91
2024/02/13 01:58:53;;;;;;;;;;;;;;;;;;5044369;28;19916;-90
2024/02/13 02:01:19;;;;;;;;;;;;;;;;;;5036612;28;19909;-90
2024/02/13 02:03:45;;;;;;;;;;;;;;;;;;5038183;28;19916;-89
2024/02/13 02:06:11;;;;;;;;;;;;;;;;;;5037227;28;20004;-89
2024/02/13 02:08:37;;;;;;;;;;;;;;;;;;5034509;28;20291;-88
2024/02/13 02:11:03;;;;;;;;;;;;;;;;;;5031247;28;19913;-89
2024/02/13 02:13:29;;;;;;;;;;;;;;;;;;5030391;28;19924;-90
2024/02/13 02:15:56;;;;;;;;;;;;;;;;;;5037543;28;19920;-90
2024/02/13 02:18:24;;;;;;;;;;;;;;;;;;5044810;28;20318;-89
2024/02/13 02:20:49;;;;;;;;;;;;;;;;;;5030130;28;19923;-90
2024/02/13 02:23:19;;;;;;;;;;;;;;;;;;5031716;28;19913;-89
2024/02/13 02:25:44;;;;;;;;;;;;;;;;;;5030604;28;19952;-91
2024/02/13 02:28:10;;;;;;;;;;;;;;;;;;5034999;28;19979;-90
2024/02/13 02:30:36;;;;;;;;;;;;;;;;;;5034552;28;19983;-90
2024/02/13 02:33:02;;;;;;;;;;;;;;;;;;5035937;28;19913;-89
2024/02/13 02:35:28;;;;;;;;;;;;;;;;;;5032201;28;19913;-90
2024/02/13 02:37:54;;;;;;;;;;;;;;;;;;5034856;28;19928;-89
2024/02/13 02:40:20;;;;;;;;;;;;;;;;;;5035634;28;19957;-88
2024/02/13 02:42:46;;;;;;;;;;;;;;;;;;5039304;28;20379;-90
2024/02/13 02:45:12;;;;;;;;;;;;;;;;;;5033112;28;20377;-90
2024/02/13 02:47:38;;;;;;;;;;;;;;;;;;5034255;28;19917;-90
2024/02/13 02:50:04;;;;;;;;;;;;;;;;;;5019164;28;20370;-90
2024/02/13 02:52:30;;;;;;;;;;;;;;;;;;5032541;28;19944;-89
2024/02/13 02:54:56;;;;;;;;;;;;;;;;;;5032137;28;19910;-90
2024/02/13 02:57:22;;;;;;;;;;;;;;;;;;5046103;28;19920;-89
2024/02/13 02:59:49;;;;;;;;;;;;;;;;;;5038128;28;20015;-89
2024/02/13 03:02:14;;;;;;;;;;;;;;;;;;5034407;28;19990;-90
2024/02/13 03:04:40;;;;;;;;;;;;;;;;;;5039244;28;20390;-88
2024/02/13 03:07:08;;;;;;;;;;;;;;;;;;5039740;28;19967;-90
2024/02/13 03:09:33;;;;;;;;;;;;;;;;;;5037535;28;19913;-90
2024/02/13 03:12:00;;;;;;;;;;;;;;;;;;5032119;28;19967;-89
2024/02/13 03:14:26;;;;;;;;;;;;;;;;;;5035700;28;19913;-90
2024/02/13 03:16:53;;;;;;;;;;;;;;;;;;5032788;28;19948;-90
2024/02/13 03:19:18;;;;;;;;;;;;;;;;;;5036073;28;19909;-91
2024/02/13 03:21:44;;;;;;;;;;;;;;;;;;5044245;28;19919;-90
2024/02/13 03:24:10;;;;;;;;;;;;;;;;;;5033626;28;19913;-90
2024/02/13 03:26:36;;;;;;;;;;;;;;;;;;5026253;28;19999;-90
2024/02/13 03:29:02;;;;;;;;;;;;;;;;;;5036240;28;19918;-89
2024/02/13 03:31:28;;;;;;;;;;;;;;;;;;5041212;28;19917;-90
2024/02/13 03:33:53;;;;;;;;;;;;;;;;;;5035262;28;19920;-91
2024/02/13 03:36:19;;;;;;;;;;;;;;;;;;5039083;28;19924;-90
2024/02/13 03:38:47;;;;;;;;;;;;;;;;;;5020029;28;19922;-89
2024/02/13 03:41:13;;;;;;;;;;;;;;;;;;5013085;28;19921;-89
2024/02/13 03:43:43;;;;;;;;;;;;;;;;;;5013740;28;19917;-88
2024/02/13 03:46:09;;;;;;;;;;;;;;;;;;5016060;28;19913;-91
2024/02/13 03:48:35;;;;;;;;;;;;;;;;;;5013875;28;19917;-91
2024/02/13 03:51:01;;;;;;;;;;;;;;;;;;5014260;28;19968;-89
2024/02/13 03:53:26;;;;;;;;;;;;;;;;;;5015674;28;19953;-89
2024/02/13 03:55:52;;;;;;;;;;;;;;;;;;5025420;28;19928;-91
2024/02/13 03:58:18;;;;;;;;;;;;;;;;;;5008662;28;19921;-90
2024/02/13 04:00:44;;;;;;;;;;;;;;;;;;5024147;28;19913;-89
2024/02/13 04:03:11;;;;;;;;;;;;;;;;;;5010870;28;19971;-89
2024/02/13 04:05:38;;;;;;;;;;;;;;;;;;5023291;28;19921;-91
2024/02/13 04:08:06;;;;;;;;;;;;;;;;;;5022495;28;20291;-91
2024/02/13 04:10:32;;;;;;;;;;;;;;;;;;5012244;28;20332;-91
2024/02/13 04:12:57;;;;;;;;;;;;;;;;;;5019430;28;19917;-90
2024/02/13 04:15:23;;;;;;;;;;;;;;;;;;5023621;28;19980;-89
2024/02/13 04:17:50;;;;;;;;;;;;;;;;;;5022357;28;19913;-91
2024/02/13 04:20:17;;;;;;;;;;;;;;;;;;5016303;28;19913;-88
2024/02/13 04:22:42;;;;;;;;;;;;;;;;;;5026623;28;20426;-90
2024/02/13 04:25:08;;;;;;;;;;;;;;;;;;5028627;28;19960;-89
2024/02/13 04:27:34;;;;;;;;;;;;;;;;;;5020337;28;20396;-92
2024/02/13 04:30:00;;;;;;;;;;;;;;;;;;5017793;28;19924;-91
2024/02/13 04:32:26;;;;;;;;;;;;;;;;;;5016878;28;19913;-90
2024/02/13 04:34:52;;;;;;;;;;;;;;;;;;5014673;28;19918;-91
2024/02/13 04:37:18;;;;;;;;;;;;;;;;;;5016093;28;19925;-91
2024/02/13 04:39:44;;;;;;;;;;;;;;;;;;5005574;28;19921;-91
2024/02/13 04:42:10;;;;;;;;;;;;;;;;;;5032917;28;20016;-90
2024/02/13 04:44:36;;;;;;;;;;;;;;;;;;5014678;28;19924;-90
2024/02/13 04:47:02;;;;;;;;;;;;;;;;;;5015580;28;19917;-91
2024/02/13 04:49:28;;;;;;;;;;;;;;;;;;5025242;28;19956;-88
2024/02/13 04:51:54;;;;;;;;;;;;;;;;;;5020253;28;19915;-91
2024/02/13 04:54:20;;;;;;;;;;;;;;;;;;5009915;28;19924;-87
2024/02/13 04:56:47;;;;;;;;;;;;;;;;;;5012590;28;19913;-91
2024/02/13 04:59:15;;;;;;;;;;;;;;;;;;5012460;28;19941;-90
2024/02/13 05:01:43;;;;;;;;;;;;;;;;;;5019327;28;20261;-91
2024/02/13 05:09:26;;;;;;;;;;;;;;;;;;5013404;28;19936;-92
2024/02/13 05:11:52;;;;;;;;;;;;;;;;;;5008731;28;19917;-91
2024/02/13 05:14:18;;;;;;;;;;;;;;;;;;5025351;28;19914;-90
2024/02/13 05:16:43;;;;;;;;;;;;;;;;;;5021935;28;19936;-90
2024/02/13 05:19:09;;;;;;;;;;;;;;;;;;5027174;28;19973;-90
2024/02/13 05:21:35;;;;;;;;;;;;;;;;;;5024824;28;19909;-90
2024/02/13 05:24:03;;;;;;;;;;;;;;;;;;5024362;28;20367;-90
2024/02/13 05:26:29;;;;;;;;;;;;;;;;;;5026081;28;19932;-91
2024/02/13 05:28:56;;;;;;;;;;;;;;;;;;5017730;28;20372;-90
2024/02/13 05:31:23;;;;;;;;;;;;;;;;;;5005403;28;19955;-89
2024/02/13 05:33:49;;;;;;;;;;;;;;;;;;5024796;28;19961;-89
2024/02/13 05:36:16;;;;;;;;;;;;;;;;;;5021503;28;19920;-89
2024/02/13 05:38:45;;;;;;;;;;;;;;;;;;5040079;28;19925;-90
2024/02/13 05:41:11;;;;;;;;;;;;;;;;;;5050684;28;19909;-88
2024/02/13 05:43:40;;;;;;;;;;;;;;;;;;5052016;28;19909;-87
2024/02/13 05:46:06;;;;;;;;;;;;;;;;;;5052028;28;20355;-88
2024/02/13 05:48:31;;;;;;;;;;;;;;;;;;5038444;28;19952;-87
2024/02/13 05:50:57;;;;;;;;;;;;;;;;;;5055413;28;20332;-88
2024/02/13 05:53:26;;;;;;;;;;;;;;;;;;5039860;28;19918;-88
2024/02/13 05:55:52;;;;;;;;;;;;;;;;;;5031609;28;20418;-88
2024/02/13 05:58:18;;;;;;;;;;;;;;;;;;5043000;28;19913;-91
2024/02/13 06:00:45;;;;;;;;;;;;;;;;;;5039523;28;19936;-92
2024/02/13 06:03:11;;;;;;;;;;;;;;;;;;5034254;28;19917;-89
2024/02/13 06:05:37;;;;;;;;;;;;;;;;;;5040730;28;19913;-89
2024/02/13 06:08:03;;;;;;;;;;;;;;;;;;5032384;28;19913;-89
2024/02/13 06:10:33;;;;;;;;;;;;;;;;;;5033738;28;19913;-89
2024/02/13 06:12:59;;;;;;;;;;;;;;;;;;5034406;28;19937;-88
2024/02/13 06:15:25;;;;;;;;;;;;;;;;;;5044104;28;19952;-89
2024/02/13 06:17:51;;;;;;;;;;;;;;;;;;5040655;28;20016;-88
2024/02/13 06:20:18;;;;;;;;;;;;;;;;;;5043983;28;19971;-88
2024/02/13 06:22:44;;;;;;;;;;;;;;;;;;5036955;28;20660;-89
2024/02/13 06:25:12;;;;;;;;;;;;;;;;;;5042148;28;19917;-88
2024/02/13 06:27:38;;;;;;;;;;;;;;;;;;5041058;28;20411;-91
2024/02/13 06:30:04;;;;;;;;;;;;;;;;;;5045360;28;19909;-89
2024/02/13 06:32:30;;;;;;;;;;;;;;;;;;5032988;28;19971;-90
2024/02/13 06:34:56;;;;;;;;;;;;;;;;;;5033167;28;19917;-88
2024/02/13 06:37:22;;;;;;;;;;;;;;;;;;5034627;28;20275;-88
2024/02/13 06:39:48;;;;;;;;;;;;;;;;;;5041924;28;19917;-89
2024/02/13 06:42:14;;;;;;;;;;;;;;;;;;5035473;28;19909;-89
2024/02/13 06:44:40;;;;;;;;;;;;;;;;;;5031114;28;19920;-89
2024/02/13 06:47:08;;;;;;;;;;;;;;;;;;5037649;28;19909;-88
2024/02/13 06:49:34;;;;;;;;;;;;;;;;;;5041549;28;19940;-88
2024/02/13 06:52:00;;;;;;;;;;;;;;;;;;5042253;28;19995;-89
2024/02/13 06:54:25;;;;;;;;;;;;;;;;;;5047327;28;20280;-89
2024/02/13 06:56:51;;;;;;;;;;;;;;;;;;5048572;28;19923;-89
2024/02/13 06:59:18;;;;;;;;;;;;;;;;;;5041951;28;19913;-88
2024/02/13 07:01:44;;;;;;;;;;;;;;;;;;5049035;28;19959;-89
2024/02/13 07:04:13;;;;;;;;;;;;;;;;;;5034938;28;19913;-89
2024/02/13 07:06:39;;;;;;;;;;;;;;;;;;5048594;28;19908;-88
2024/02/13 07:09:05;;;;;;;;;;;;;;;;;;5039496;28;19963;-88
2024/02/13 07:11:31;;;;;;;;;;;;;;;;;;5032954;28;19913;-89
2024/02/13 07:13:57;;;;;;;;;;;;;;;;;;5031637;28;19924;-89
2024/02/13 07:16:23;;;;;;;;;;;;;;;;;;5016570;28;19912;-88
2024/02/13 07:18:48;;;;;;;;;;;;;;;;;;5042238;28;19920;-88
2024/02/13 07:21:15;;;;;;;;;;;;;;;;;;5035393;28;19909;-89
2024/02/13 07:23:40;;;;;;;;;;;;;;;;;;5031666;28;19917;-89
2024/02/13 07:26:06;;;;;;;;;;;;;;;;;;5032510;28;19917;-88
2024/02/13 07:28:32;;;;;;;;;;;;;;;;;;5041689;28;19921;-87
2024/02/13 07:30:58;;;;;;;;;;;;;;;;;;5037653;28;20039;-88
2024/02/13 07:33:24;;;;;;;;;;;;;;;;;;5041048;28;20360;-88
2024/02/13 07:35:50;;;;;;;;;;;;;;;;;;5031498;28;19913;-89
2024/02/13 07:38:16;;;;;;;;;;;;;;;;;;5030859;28;19929;-89
2024/02/13 07:40:43;;;;;;;;;;;;;;;;;;5025342;28;19909;-88
2024/02/13 07:43:12;;;;;;;;;;;;;;;;;;5021513;28;19916;-88
2024/02/13 07:45:38;;;;;;;;;;;;;;;;;;5014867;28;19914;-87
2024/02/13 07:48:04;;;;;;;;;;;;;;;;;;5012110;28;19921;-89
2024/02/13 07:50:30;;;;;;;;;;;;;;;;;;5025013;28;20004;-88
2024/02/13 07:52:56;;;;;;;;;;;;;;;;;;5002048;28;19953;-88
2024/02/13 07:55:22;;;;;;;;;;;;;;;;;;5005260;28;19910;-87
2024/02/13 07:57:50;;;;;;;;;;;;;;;;;;5023194;28;19967;-88
2024/02/13 08:00:15;;;;;;;;;;;;;;;;;;4995873;28;20293;-89
2024/02/13 08:02:41;;;;;;;;;;;;;;;;;;5015961;28;19972;-88
2024/02/13 08:05:07;;;;;;;;;;;;;;;;;;5011444;28;20418;-88
2024/02/13 08:07:33;;;;;;;;;;;;;;;;;;5023147;28;19920;-89
2024/02/13 08:09:59;;;;;;;;;;;;;;;;;;5015084;28;19915;-84
2024/02/13 08:12:25;;;;;;;;;;;;;;;;;;5010707;28;19968;-84
2024/02/13 08:14:51;;;;;;;;;;;;;;;;;;5008933;28;19961;-85
2024/02/13 08:17:17;;;;;;;;;;;;;;;;;;5009051;28;19960;-86
2024/02/13 08:19:43;;;;;;;;;;;;;;;;;;5008518;28;19921;-84
2024/02/13 08:22:08;;;;;;;;;;;;;;;;;;5008878;28;19918;-85
2024/02/13 08:24:35;;;;;;;;;;;;;;;;;;5008667;28;19919;-85
2024/02/13 08:27:01;;;;;;;;;;;;;;;;;;5009323;28;20357;-85
2024/02/13 08:29:27;;;;;;;;;;;;;;;;;;5009576;28;20284;-84
2024/02/13 08:31:54;;;;;;;;;;;;;;;;;;5008816;28;19921;-86
2024/02/13 08:34:21;;;;;;;;;;;;;;;;;;5012422;28;19927;-88
2024/02/13 08:36:48;;;;;;;;;;;;;;;;;;4999281;28;19917;-88
2024/02/13 08:39:14;;;;;;;;;;;;;;;;;;5030181;28;19928;-88
2024/02/13 08:41:40;;;;;;;;;;;;;;;;;;5029587;28;19921;-88
2024/02/13 08:44:07;;;;;;;;;;;;;;;;;;5030281;28;19913;-88
2024/02/13 08:46:33;;;;;;;;;;;;;;;;;;5028788;28;20018;-91
2024/02/13 08:49:00;;;;;;;;;;;;;;;;;;5029075;28;19964;-85
2024/02/13 08:51:27;;;;;;;;;;;;;;;;;;5030019;28;19909;-86
2024/02/13 08:53:53;;;;;;;;;;;;;;;;;;5031172;28;19921;-88
2024/02/13 08:56:19;;;;;;;;;;;;;;;;;;5033898;28;19920;-88
2024/02/13 08:58:45;;;;;;;;;;;;;;;;;;5032386;28;19917;-86
2024/02/13 09:01:12;;;;;;;;;;;;;;;;;;5034496;28;20383;-88
2024/02/13 09:03:38;;;;;;;;;;;;;;;;;;5034144;28;19919;-86
2024/02/13 09:06:04;;;;;;;;;;;;;;;;;;5021432;28;19909;-90
2024/02/13 09:08:30;;;;;;;;;;;;;;;;;;5031039;28;19928;-86
2024/02/13 09:10:56;;;;;;;;;;;;;;;;;;5028641;28;19913;-85
2024/02/13 09:13:22;;;;;;;;;;;;;;;;;;5029276;28;19917;-87
2024/02/13 09:15:48;;;;;;;;;;;;;;;;;;5030067;28;19960;-87
2024/02/13 09:18:14;;;;;;;;;;;;;;;;;;5028674;28;19971;-88
2024/02/13 09:20:39;;;;;;;;;;;;;;;;;;5032404;28;19919;-87
2024/02/13 09:23:06;;;;;;;;;;;;;;;;;;5032678;28;20360;-88
2024/02/13 09:25:32;;;;;;;;;;;;;;;;;;5037192;28;19916;-89
2024/02/13 09:27:58;;;;;;;;;;;;;;;;;;5035868;28;19924;-88
2024/02/13 09:30:24;;;;;;;;;;;;;;;;;;5036373;28;19921;-89
2024/02/13 09:32:50;;;;;;;;;;;;;;;;;;5039076;28;19913;-88
2024/02/13 09:35:17;;;;;;;;;;;;;;;;;;5047051;28;20276;-89
2024/02/13 09:37:44;;;;;;;;;;;;;;;;;;5042387;28;19979;-88
2024/02/13 09:40:13;;;;;;;;;;;;;;;;;;5038176;28;20705;-90
2024/02/13 09:42:39;;;;;;;;;;;;;;;;;;5045447;28;20382;-90
2024/02/13 09:45:06;;;;;;;;;;;;;;;;;;5046329;28;19913;-88
2024/02/13 09:47:32;;;;;;;;;;;;;;;;;;5037221;28;20376;-90
2024/02/13 09:49:58;;;;;;;;;;;;;;;;;;5040545;28;19928;-89
2024/02/13 09:52:24;;;;;;;;;;;;;;;;;;5047831;28;20262;-89
2024/02/13 09:54:50;;;;;;;;;;;;;;;;;;5045098;28;19924;-90
2024/02/13 09:57:17;;;;;;;;;;;;;;;;;;5061725;28;20359;-92
2024/02/13 09:59:42;;;;;;;;;;;;;;;;;;5046688;28;19948;-91
2024/02/13 10:02:08;;;;;;;;;;;;;;;;;;5040261;28;19917;-89
2024/02/13 10:04:34;;;;;;;;;;;;;;;;;;5044939;28;19909;-90
2024/02/13 10:07:01;;;;;;;;;;;;;;;;;;5043276;28;20270;-89
2024/02/13 10:09:28;;;;;;;;;;;;;;;;;;5013309;28;19917;-89
2024/02/13 10:11:54;;;;;;;;;;;;;;;;;;5027822;28;19920;-90
2024/02/13 10:14:21;;;;;;;;;;;;;;;;;;5031317;28;19917;-91
2024/02/13 10:16:50;;;;;;;;;;;;;;;;;;5035341;28;19917;-88
2024/02/13 10:19:16;;;;;;;;;;;;;;;;;;5034345;28;19913;-89
2024/02/13 10:21:42;;;;;;;;;;;;;;;;;;5036934;28;19913;-89
2024/02/13 10:24:09;;;;;;;;;;;;;;;;;;5034488;28;19921;-89
2024/02/13 10:26:34;;;;;;;;;;;;;;;;;;5032276;28;19927;-89
2024/02/13 10:29:00;;;;;;;;;;;;;;;;;;5034678;28;20349;-91
2024/02/13 10:31:26;;;;;;;;;;;;;;;;;;5035775;28;19910;-89
2024/02/13 10:33:54;;;;;;;;;;;;;;;;;;5049067;28;19917;-90
2024/02/13 10:36:20;;;;;;;;;;;;;;;;;;5038773;28;19932;-90
2024/02/13 10:38:48;;;;;;;;;;;;;;;;;;5040770;28;19921;-88
2024/02/13 10:41:19;;;;;;;;;;;;;;;;;;5033492;28;19913;-89
2024/02/13 10:43:45;;;;;;;;;;;;;;;;;;5034562;28;19971;-88
2024/02/13 10:46:11;;;;;;;;;;;;;;;;;;5036114;28;20355;-88
2024/02/13 10:48:37;;;;;;;;;;;;;;;;;;5014133;28;19920;-89
2024/02/13 10:51:03;;;;;;;;;;;;;;;;;;5053739;28;19921;-90
2024/02/13 10:53:29;;;;;;;;;;;;;;;;;;5039128;28;19913;-89
2024/02/13 10:55:57;;;;;;;;;;;;;;;;;;5034312;28;19925;-89
2024/02/13 10:58:29;;;;;;;;;;;;;;;;;;5024267;28;19917;-88
2024/02/13 11:00:55;;;;;;;;;;;;;;;;;;5032502;28;19917;-86
2024/02/13 11:03:21;;;;;;;;;;;;;;;;;;5050242;28;20001;-88
2024/02/13 11:05:47;;;;;;;;;;;;;;;;;;5030517;28;19916;-88
2024/02/13 11:08:13;;;;;;;;;;;;;;;;;;5045646;28;19992;-88
2024/02/13 11:10:41;;;;;;;;;;;;;;;;;;5046579;28;19917;-87
2024/02/13 11:13:09;;;;;;;;;;;;;;;;;;5034429;28;20973;-86
2024/02/13 11:15:37;;;;;;;;;;;;;;;;;;5032694;28;19909;-87
2024/02/13 11:18:07;;;;;;;;;;;;;;;;;;5028733;28;19920;-87
2024/02/13 11:20:33;;;;;;;;;;;;;;;;;;5028472;28;19920;-85
2024/02/13 11:22:59;;;;;;;;;;;;;;;;;;5035120;28;19917;-87
2024/02/13 11:25:26;;;;;;;;;;;;;;;;;;5044293;28;19913;-87
2024/02/13 11:27:52;;;;;;;;;;;;;;;;;;5042508;28;19948;-87
2024/02/13 11:30:37;;;;;;;;;;;;;;;;;;5133779;27;20389;-86
2024/02/13 11:33:05;;;;;;;;;;;;;;;;;;5116876;28;20011;-88
2024/02/13 11:35:32;;;;;;;;;;;;;;;;;;5111586;27;20522;-86
2024/02/13 11:38:01;;;;;;;;;;;;;;;;;;5117502;28;19912;-86
2024/02/13 11:40:26;;;;;;;;;;;;;;;;;;5102565;28;20366;-87
2024/02/13 11:42:52;;;;;;;;;;;;;;;;;;5106142;28;19980;-87
2024/02/13 11:45:18;;;;;;;;;;;;;;;;;;5108474;28;19918;-88
2024/02/13 11:47:44;;;;;;;;;;;;;;;;;;5092300;28;19916;-86
2024/02/13 11:50:10;;;;;;;;;;;;;;;;;;5098616;28;19912;-87
2024/02/13 11:52:36;;;;;;;;;;;;;;;;;;5098861;28;19909;-88
2024/02/13 11:55:02;;;;;;;;;;;;;;;;;;5115544;28;20410;-86
2024/02/13 11:57:28;;;;;;;;;;;;;;;;;;5114997;28;19984;-87
2024/02/13 11:59:54;;;;;;;;;;;;;;;;;;5106820;28;20295;-83
2024/02/13 12:02:20;;;;;;;;;;;;;;;;;;5093289;28;20546;-82
2024/02/13 12:04:46;;;;;;;;;;;;;;;;;;5102248;28;20328;-82
2024/02/13 12:07:12;;;;;;;;;;;;;;;;;;5093154;28;19909;-82
2024/02/13 12:09:37;;;;;;;;;;;;;;;;;;5085059;28;19913;-82
2024/02/13 12:12:04;;;;;;;;;;;;;;;;;;5084977;28;19909;-83
2024/02/13 12:14:30;;;;;;;;;;;;;;;;;;5098146;28;19920;-83
2024/02/13 12:16:55;;;;;;;;;;;;;;;;;;5084738;28;19915;-82
2024/02/13 12:19:21;;;;;;;;;;;;;;;;;;5085698;28;19919;-82
2024/02/13 12:21:47;;;;;;;;;;;;;;;;;;5105132;28;19922;-82
2024/02/13 12:24:13;;;;;;;;;;;;;;;;;;5098665;28;19912;-82
2024/02/13 12:26:39;;;;;;;;;;;;;;;;;;5105288;28;20286;-82
2024/02/13 12:29:14;;;;;;;;;;;;;;;;;;5102822;28;20034;-82
2024/02/13 12:31:40;;;;;;;;;;;;;;;;;;5084887;28;19915;-82
2024/02/13 12:34:06;;;;;;;;;;;;;;;;;;5086638;28;19908;-82
2024/02/13 12:36:32;;;;;;;;;;;;;;;;;;5106651;28;19912;-82
2024/02/13 12:38:58;;;;;;;;;;;;;;;;;;5104528;28;19931;-82
2024/02/13 12:41:24;;;;;;;;;;;;;;;;;;5094780;28;19908;-82
2024/02/13 12:43:50;;;;;;;;;;;;;;;;;;5088861;28;20297;-82
2024/02/13 12:46:17;;;;;;;;;;;;;;;;;;5073142;28;19908;-82
2024/02/13 12:48:42;;;;;;;;;;;;;;;;;;5071218;28;20382;-82
2024/02/13 12:51:08;;;;;;;;;;;;;;;;;;5070755;28;19912;-82
2024/02/13 12:53:34;;;;;;;;;;;;;;;;;;5070862;28;19964;-82
2024/02/13 12:56:00;;;;;;;;;;;;;;;;;;5088359;28;19980;-82
2024/02/13 12:58:26;;;;;;;;;;;;;;;;;;5076419;28;19908;-81
2024/02/13 13:00:52;;;;;;;;;;;;;;;;;;5087142;28;19996;-82
2024/02/13 13:03:19;;;;;;;;;;;;;;;;;;5078712;28;20371;-81
2024/02/13 13:05:48;;;;;;;;;;;;;;;;;;5083673;28;20381;-81
2024/02/13 13:08:15;;;;;;;;;;;;;;;;;;5084237;28;19920;-81
2024/02/13 13:10:40;;;;;;;;;;;;;;;;;;5085704;28;19908;-84
2024/02/13 13:13:06;;;;;;;;;;;;;;;;;;5089279;28;19991;-84
2024/02/13 13:15:32;;;;;;;;;;;;;;;;;;5091033;28;20556;-84
2024/02/13 13:18:01;;;;;;;;;;;;;;;;;;5089986;28;19912;-84
2024/02/13 13:20:28;;;;;;;;;;;;;;;;;;5090876;28;19912;-84
2024/02/13 13:22:54;;;;;;;;;;;;;;;;;;5088146;28;19912;-85
2024/02/13 13:25:31;;;;;;;;;;;;;;;;;;5091508;28;20390;-81
2024/02/13 13:28:05;;;;;;;;;;;;;;;;;;5090262;28;19916;-82
2024/02/13 13:30:31;;;;;;;;;;;;;;;;;;5091208;28;20182;-84
2024/02/13 13:32:56;;;;;;;;;;;;;;;;;;5090995;28;19916;-83
2024/02/13 13:35:26;;;;;;;;;;;;;;;;;;5090193;28;19919;-83
2024/02/13 13:37:52;;;;;;;;;;;;;;;;;;5091492;28;20082;-83
2024/02/13 13:40:18;;;;;;;;;;;;;;;;;;5079013;28;20321;-83
2024/02/13 13:42:44;;;;;;;;;;;;;;;;;;5090843;28;19908;-83
2024/02/13 13:45:10;;;;;;;;;;;;;;;;;;5084078;28;20457;-82
2024/02/13 13:47:36;;;;;;;;;;;;;;;;;;5075793;28;20371;-84
2024/02/13 13:50:01;;;;;;;;;;;;;;;;;;5071122;28;19952;-84
2024/02/13 13:52:27;;;;;;;;;;;;;;;;;;5070909;28;20496;-83
2024/02/13 13:54:53;;;;;;;;;;;;;;;;;;5072276;28;20376;-82
2024/02/13 13:57:19;;;;;;;;;;;;;;;;;;5075102;28;19943;-83
2024/02/13 13:59:45;;;;;;;;;;;;;;;;;;5091482;28;19916;-82
2024/02/13 14:02:11;;;;;;;;;;;;;;;;;;5079915;28;20058;-82
2024/02/13 14:04:37;;;;;;;;;;;;;;;;;;5072010;28;19909;-82
2024/02/13 14:07:05;;;;;;;;;;;;;;;;;;5089860;28;19916;-82
2024/02/13 14:09:31;;;;;;;;;;;;;;;;;;5092891;28;20631;-84
2024/02/13 14:11:58;;;;;;;;;;;;;;;;;;5083183;28;19916;-84
2024/02/13 14:14:24;;;;;;;;;;;;;;;;;;5088765;28;20006;-85
2024/02/13 14:16:49;;;;;;;;;;;;;;;;;;5081238;28;20366;-83
2024/02/13 14:19:15;;;;;;;;;;;;;;;;;;5087959;28;19908;-84
2024/02/13 14:21:41;;;;;;;;;;;;;;;;;;5084842;28;19959;-83
2024/02/13 14:24:11;;;;;;;;;;;;;;;;;;5082692;28;19912;-82
2024/02/13 14:26:37;;;;;;;;;;;;;;;;;;5081642;28;20003;-84
2024/02/13 14:29:03;;;;;;;;;;;;;;;;;;5082167;28;20047;-82
2024/02/13 14:31:30;;;;;;;;;;;;;;;;;;5082359;28;19912;-83
2024/02/13 14:33:56;;;;;;;;;;;;;;;;;;5082438;28;19952;-83
2024/02/13 14:36:23;;;;;;;;;;;;;;;;;;5082153;28;19958;-84
2024/02/13 14:38:49;;;;;;;;;;;;;;;;;;5080019;28;20022;-84
2024/02/13 14:41:29;;;;;;;;;;;;;;;;;;5077877;28;20011;-82
2024/02/13 14:43:55;;;;;;;;;;;;;;;;;;5079580;28;19955;-84
2024/02/13 14:46:21;;;;;;;;;;;;;;;;;;5076537;28;19917;-83
2024/02/13 14:48:48;;;;;;;;;;;;;;;;;;5073284;28;19923;-84
2024/02/13 14:51:18;;;;;;;;;;;;;;;;;;5077115;28;19935;-84
2024/02/13 14:53:44;;;;;;;;;;;;;;;;;;5078352;28;20927;-84
2024/02/13 14:56:11;;;;;;;;;;;;;;;;;;5077309;28;19912;-85
2024/02/13 14:58:37;;;;;;;;;;;;;;;;;;5081497;28;20369;-84
2024/02/13 15:01:07;;;;;;;;;;;;;;;;;;5081117;28;19920;-84
2024/02/13 15:03:32;;;;;;;;;;;;;;;;;;5076094;28;20546;-83
2024/02/13 15:05:59;;;;;;;;;;;;;;;;;;5078328;28;19965;-84
2024/02/13 15:08:25;;;;;;;;;;;;;;;;;;5078300;28;20027;-83
2024/02/13 15:10:52;;;;;;;;;;;;;;;;;;5076982;28;19980;-84
2024/02/13 15:13:18;;;;;;;;;;;;;;;;;;5077805;28;20317;-83
2024/02/13 15:15:48;;;;;;;;;;;;;;;;;;5077759;28;19920;-83
2024/02/13 15:18:14;;;;;;;;;;;;;;;;;;5078240;28;19912;-84
2024/02/13 15:20:40;;;;;;;;;;;;;;;;;;5079543;28;19908;-83
2024/02/13 15:23:06;;;;;;;;;;;;;;;;;;5081621;28;20020;-84
2024/02/13 15:25:32;;;;;;;;;;;;;;;;;;5077326;28;19969;-84
2024/02/13 15:27:58;;;;;;;;;;;;;;;;;;5077795;28;19920;-83
2024/02/13 15:30:24;;;;;;;;;;;;;;;;;;5075676;28;20342;-83
2024/02/13 15:32:50;;;;;;;;;;;;;;;;;;5076057;28;19917;-83
2024/02/13 15:35:19;;;;;;;;;;;;;;;;;;5077861;28;19927;-84
2024/02/13 15:48:46;;;;;;;;;;;;;;;;;;5078583;28;19939;-83
2024/02/13 15:51:14;;;;;;;;;;;;;;;;;;5085714;28;19977;-84
2024/02/13 15:53:41;;;;;;;;;;;;;;;;;;5080181;28;19919;-84
2024/02/13 15:56:10;;;;;;;;;;;;;;;;;;5089220;28;20601;-85
2024/02/13 15:58:37;;;;;;;;;;;;;;;;;;5089912;28;20334;-85
2024/02/13 16:01:03;;;;;;;;;;;;;;;;;;5087278;28;19927;-84
2024/02/13 16:03:29;;;;;;;;;;;;;;;;;;5085519;28;20452;-80
2024/02/13 16:05:55;;;;;;;;;;;;;;;;;;5085430;28;19921;-89
2024/02/13 16:08:21;;;;;;;;;;;;;;;;;;5082759;28;20283;-90
2024/02/13 16:10:47;;;;;;;;;;;;;;;;;;5091704;28;20446;-89
2024/02/13 16:13:14;;;;;;;;;;;;;;;;;;5098939;28;19916;-87
2024/02/13 16:15:40;;;;;;;;;;;;;;;;;;5091064;28;19908;-87
2024/02/13 16:18:06;;;;;;;;;;;;;;;;;;5093677;28;20066;-88
2024/02/13 16:20:32;;;;;;;;;;;;;;;;;;5080398;28;19919;-87
2024/02/13 16:22:58;;;;;;;;;;;;;;;;;;5086030;28;19917;-88
2024/02/13 16:25:24;;;;;;;;;;;;;;;;;;5098945;28;19946;-88
2024/02/13 16:27:50;;;;;;;;;;;;;;;;;;5092082;28;19913;-88
2024/02/13 16:30:18;;;;;;;;;;;;;;;;;;5086588;28;19924;-86
2024/02/13 16:32:44;;;;;;;;;;;;;;;;;;5088688;28;19913;-87
2024/02/13 16:35:10;;;;;;;;;;;;;;;;;;5083201;28;20441;-87
2024/02/13 16:37:36;;;;;;;;;;;;;;;;;;5081905;28;20029;-86
2024/02/13 16:40:03;;;;;;;;;;;;;;;;;;5081136;28;19916;-86
2024/02/13 16:42:28;;;;;;;;;;;;;;;;;;5081333;28;19924;-85
2024/02/13 16:44:55;;;;;;;;;;;;;;;;;;5078463;28;19948;-85
2024/02/13 16:47:21;;;;;;;;;;;;;;;;;;5080461;28;20023;-82
2024/02/13 16:49:47;;;;;;;;;;;;;;;;;;5084555;28;19924;-86
2024/02/13 16:52:13;;;;;;;;;;;;;;;;;;5081344;28;19916;-84
2024/02/13 16:54:40;;;;;;;;;;;;;;;;;;5081446;28;19951;-84
2024/02/13 16:57:09;;;;;;;;;;;;;;;;;;5082642;28;19912;-85